Time;durP1;ratioP1;P1;durP2;ratioP2;P2;SDS_P1;SDS_P2;PMS_P1;PMS_P2;Temp;Humidity;BMP_temperature;BMP_pressure;BME280_temperature;BME280_humidity;BME280_pressure;Samples;Min_cycle;Max_cycle;Signal;HPM_P1;HPM_P2
2020/12/21 00:02:15;;;;;;;;;;;;;;;2.11;100.00;101480.22;5034844;28;19928;-75
2020/12/21 00:04:41;;;;;;;;;;;;;;;2.10;100.00;101480.25;5033785;28;19960;-75
2020/12/21 00:07:06;;;;;;;;;;;;;;;2.06;100.00;101482.16;5034159;28;19929;-75
2020/12/21 00:09:32;;;;;;;;;;;;;;;2.11;100.00;101484.69;5034357;28;19925;-75
2020/12/21 00:11:58;;;;;;;;;;;;;;;2.11;100.00;101490.03;5034612;28;20294;-75
2020/12/21 00:14:25;;;;;;;;;;;;;;;2.11;100.00;101487.34;5033393;28;19925;-75
2020/12/21 00:16:51;;;;;;;;;;;;;;;2.11;100.00;101490.94;5034202;28;20358;-75
2020/12/21 00:19:18;;;;;;;;;;;;;;;2.11;100.00;101485.56;5034417;28;20486;-75
2020/12/21 00:21:45;;;;;;;;;;;;;;;2.13;100.00;101489.06;5033376;28;19925;-75
2020/12/21 00:24:11;;;;;;;;;;;;;;;2.12;100.00;101489.97;5032760;28;20028;-75
2020/12/21 00:26:37;;;;;;;;;;;;;;;2.12;100.00;101478.41;5033950;28;19926;-75
2020/12/21 00:29:03;;;;;;;;;;;;;;;2.13;100.00;101482.84;5034284;28;20301;-75
2020/12/21 00:31:30;;;;;;;;;;;;;;;2.10;100.00;101481.13;5034193;28;19931;-75
2020/12/21 00:33:57;;;;;;;;;;;;;;;2.11;100.00;101490.94;5034063;28;19931;-75
2020/12/21 00:36:23;;;;;;;;;;;;;;;2.12;100.00;101498.00;5033939;28;19957;-75
2020/12/21 00:38:48;;;;;;;;;;;;;;;2.12;100.00;101502.50;5034044;28;20015;-75
2020/12/21 00:41:15;;;;;;;;;;;;;;;2.12;100.00;101499.81;5034019;28;20028;-75
2020/12/21 00:43:41;;;;;;;;;;;;;;;2.13;100.00;101505.13;5033525;28;19956;-75
2020/12/21 00:46:11;;;;;;;;;;;;;;;2.13;100.00;101504.28;5033031;28;19960;-75
2020/12/21 00:48:38;;;;;;;;;;;;;;;2.13;100.00;101509.63;5032795;28;19933;-75
2020/12/21 00:51:03;;;;;;;;;;;;;;;2.11;100.00;101511.47;5034031;28;20430;-75
2020/12/21 00:53:29;;;;;;;;;;;;;;;2.11;100.00;101517.72;5033882;28;19925;-75
2020/12/21 00:55:55;;;;;;;;;;;;;;;2.09;100.00;101514.19;5033726;28;19929;-75
2020/12/21 00:58:21;;;;;;;;;;;;;;;2.09;100.00;101508.84;5033652;28;19925;-75
2020/12/21 01:00:46;;;;;;;;;;;;;;;2.09;100.00;101507.97;5033522;28;19929;-75
2020/12/21 01:03:14;;;;;;;;;;;;;;;2.08;100.00;101517.78;5033573;28;19929;-75
2020/12/21 01:05:41;;;;;;;;;;;;;;;2.09;100.00;101522.22;5032039;28;20363;-75
2020/12/21 01:08:07;;;;;;;;;;;;;;;2.09;100.00;101530.28;5033238;28;20010;-75
2020/12/21 01:10:32;;;;;;;;;;;;;;;2.09;100.00;101526.72;5033461;28;19929;-74
2020/12/21 01:12:58;;;;;;;;;;;;;;;2.10;100.00;101531.13;5033382;28;19951;-75
2020/12/21 01:15:24;;;;;;;;;;;;;;;2.10;100.00;101520.41;5033220;28;19925;-74
2020/12/21 01:17:50;;;;;;;;;;;;;;;2.10;100.00;101525.78;5033382;28;19925;-74
2020/12/21 01:20:15;;;;;;;;;;;;;;;2.09;100.00;101535.63;5015367;28;20371;-74
2020/12/21 01:22:42;;;;;;;;;;;;;;;2.09;100.00;101545.47;5033040;28;20196;-75
2020/12/21 01:25:08;;;;;;;;;;;;;;;2.11;100.00;101541.81;5033308;28;20016;-75
2020/12/21 01:27:33;;;;;;;;;;;;;;;2.11;100.00;101525.75;5033112;28;20279;-75
2020/12/21 01:29:59;;;;;;;;;;;;;;;2.11;100.00;101525.75;5033110;28;19925;-75
2020/12/21 01:32:25;;;;;;;;;;;;;;;2.10;100.00;101526.66;5033070;28;19987;-74
2020/12/21 01:34:51;;;;;;;;;;;;;;;2.09;100.00;101524.91;5033036;28;19925;-74
2020/12/21 01:37:16;;;;;;;;;;;;;;;2.07;100.00;101526.78;5032683;28;19925;-74
2020/12/21 01:39:48;;;;;;;;;;;;;;;2.07;100.00;101523.22;5032629;28;19979;-74
2020/12/21 01:42:14;;;;;;;;;;;;;;;2.07;100.00;101521.44;5044745;28;20016;-75
2020/12/21 01:44:40;;;;;;;;;;;;;;;2.06;100.00;101530.38;5052816;28;19925;-74
2020/12/21 01:47:05;;;;;;;;;;;;;;;2.05;100.00;101520.59;5052274;28;19940;-74
2020/12/21 01:49:31;;;;;;;;;;;;;;;2.06;100.00;101518.78;5052708;28;19991;-74
2020/12/21 01:51:57;;;;;;;;;;;;;;;2.07;100.00;101515.16;5052446;28;19928;-74
2020/12/21 01:54:23;;;;;;;;;;;;;;;2.08;100.00;101517.78;5052579;28;19943;-74
2020/12/21 01:56:52;;;;;;;;;;;;;;;2.07;100.00;101520.53;5051965;28;20023;-74
2020/12/21 01:59:18;;;;;;;;;;;;;;;2.06;100.00;101517.00;5052511;28;19925;-74
2020/12/21 02:01:45;;;;;;;;;;;;;;;2.05;100.00;101520.59;5052444;28;20439;-75
2020/12/21 02:04:11;;;;;;;;;;;;;;;2.04;100.00;101521.50;5052345;28;20027;-74
2020/12/21 02:06:37;;;;;;;;;;;;;;;2.03;100.00;101513.53;5052039;28;20031;-74
2020/12/21 02:09:03;;;;;;;;;;;;;;;2.03;100.00;101508.16;5052288;28;19928;-74
2020/12/21 02:11:28;;;;;;;;;;;;;;;2.03;100.00;101505.50;5052207;28;19929;-74
2020/12/21 02:13:55;;;;;;;;;;;;;;;2.03;100.00;101508.16;5052892;28;19925;-74
2020/12/21 02:16:21;;;;;;;;;;;;;;;2.02;100.00;101507.31;5054340;28;19928;-74
2020/12/21 02:18:46;;;;;;;;;;;;;;;2.03;100.00;101509.03;5052030;28;19971;-74
2020/12/21 02:21:13;;;;;;;;;;;;;;;2.04;100.00;101512.59;5052250;28;19928;-74
2020/12/21 02:23:39;;;;;;;;;;;;;;;2.06;100.00;101518.78;5052059;28;19925;-74
2020/12/21 02:26:05;;;;;;;;;;;;;;;2.09;100.00;101519.56;5051893;28;20032;-74
2020/12/21 02:28:31;;;;;;;;;;;;;;;2.11;100.00;101512.34;5052238;28;19964;-75
2020/12/21 02:30:56;;;;;;;;;;;;;;;2.15;100.00;101526.50;5051841;28;20345;-74
2020/12/21 02:33:22;;;;;;;;;;;;;;;2.17;100.00;101514.81;5051556;28;19932;-74
2020/12/21 02:35:48;;;;;;;;;;;;;;;2.22;100.00;101519.13;5051433;28;20385;-74
2020/12/21 02:38:14;;;;;;;;;;;;;;;2.24;100.00;101536.06;5051790;28;19975;-75
2020/12/21 02:40:41;;;;;;;;;;;;;;;2.29;100.00;101532.28;5051643;28;20457;-74
2020/12/21 02:43:07;;;;;;;;;;;;;;;2.33;100.00;101533.94;5051588;28;20309;-74
2020/12/21 02:45:33;;;;;;;;;;;;;;;2.36;100.00;101527.59;5051417;28;20283;-74
2020/12/21 02:47:58;;;;;;;;;;;;;;;2.42;100.00;101531.84;5051202;28;19932;-75
2020/12/21 02:50:25;;;;;;;;;;;;;;;2.44;100.00;101530.88;5051594;28;19932;-75
2020/12/21 02:52:51;;;;;;;;;;;;;;;2.49;100.00;101533.41;5051558;28;19990;-74
2020/12/21 02:55:17;;;;;;;;;;;;;;;2.52;100.00;101530.63;5051540;28;19925;-74
2020/12/21 02:57:43;;;;;;;;;;;;;;;2.56;100.00;101534.09;5051174;28;20027;-74
2020/12/21 03:00:09;;;;;;;;;;;;;;;2.58;100.00;101535.78;5051510;28;20016;-74
2020/12/21 03:02:35;;;;;;;;;;;;;;;2.60;100.00;101535.72;5051276;28;20054;-74
2020/12/21 03:05:01;;;;;;;;;;;;;;;2.61;100.00;101538.34;5051300;28;19929;-74
2020/12/21 03:07:27;;;;;;;;;;;;;;;2.63;100.00;101539.19;5050272;28;20305;-74
2020/12/21 03:09:52;;;;;;;;;;;;;;;2.65;100.00;101547.16;5051166;28;19925;-74
2020/12/21 03:12:19;;;;;;;;;;;;;;;2.65;100.00;101541.81;5051259;28;19931;-75
2020/12/21 03:14:45;;;;;;;;;;;;;;;2.66;100.00;101544.44;5051209;28;20062;-74
2020/12/21 03:17:11;;;;;;;;;;;;;;;2.68;100.00;101545.22;5050929;28;19928;-74
2020/12/21 03:19:36;;;;;;;;;;;;;;;2.71;100.00;101536.19;5051207;28;19939;-74
2020/12/21 03:22:02;;;;;;;;;;;;;;;2.74;100.00;101538.78;5051081;28;19925;-75
2020/12/21 03:24:28;;;;;;;;;;;;;;;2.76;100.00;101536.06;5051130;28;19956;-74
2020/12/21 03:26:54;;;;;;;;;;;;;;;2.76;100.00;101525.34;5050443;28;19934;-74
2020/12/21 03:29:21;;;;;;;;;;;;;;;2.76;100.00;101525.34;5051203;28;19928;-74
2020/12/21 03:31:46;;;;;;;;;;;;;;;2.76;100.00;101533.38;5049892;28;20015;-74
2020/12/21 03:34:13;;;;;;;;;;;;;;;2.76;100.00;101542.28;5051293;28;20417;-74
2020/12/21 03:36:39;;;;;;;;;;;;;;;2.77;100.00;101532.44;5050693;28;19956;-74
2020/12/21 03:39:05;;;;;;;;;;;;;;;2.78;100.00;101534.19;5050920;28;19963;-74
2020/12/21 03:41:31;;;;;;;;;;;;;;;2.79;100.00;101526.09;5050177;28;20302;-74
2020/12/21 03:43:57;;;;;;;;;;;;;;;2.80;100.00;101527.84;5031587;28;19936;-74
2020/12/21 03:46:23;;;;;;;;;;;;;;;2.82;100.00;101520.63;5030905;28;20407;-75
2020/12/21 03:48:49;;;;;;;;;;;;;;;2.84;100.00;101534.84;5030932;28;20019;-74
2020/12/21 03:51:15;;;;;;;;;;;;;;;2.85;100.00;101525.88;5031066;28;19932;-74
2020/12/21 03:53:41;;;;;;;;;;;;;;;2.88;100.00;101524.03;5031018;28;19925;-75
2020/12/21 03:56:06;;;;;;;;;;;;;;;2.89;100.00;101521.28;5030789;28;19933;-75
2020/12/21 03:58:32;;;;;;;;;;;;;;;2.93;100.00;101522.91;5030941;28;19925;-74
2020/12/21 04:01:00;;;;;;;;;;;;;;;2.95;100.00;101529.09;5030591;28;19925;-74
2020/12/21 04:03:27;;;;;;;;;;;;;;;2.97;100.00;101526.38;5031153;28;19931;-74
2020/12/21 04:05:52;;;;;;;;;;;;;;;3.00;100.00;101520.88;5030539;28;19975;-74
2020/12/21 04:08:19;;;;;;;;;;;;;;;3.02;100.00;101513.66;5030850;28;19925;-75
2020/12/21 04:10:46;;;;;;;;;;;;;;;3.04;100.00;101517.16;5030867;28;19931;-74
2020/12/21 04:13:12;;;;;;;;;;;;;;;3.07;100.00;101518.84;5030837;28;20366;-74
2020/12/21 04:15:37;;;;;;;;;;;;;;;3.08;100.00;101515.22;5030640;28;19929;-74
2020/12/21 04:18:03;;;;;;;;;;;;;;;3.09;100.00;101522.34;5030909;28;19936;-74
2020/12/21 04:20:30;;;;;;;;;;;;;;;3.10;100.00;101524.97;5032759;28;20399;-74
2020/12/21 04:22:55;;;;;;;;;;;;;;;3.10;100.00;101527.66;5032989;28;20370;-74
2020/12/21 04:25:21;;;;;;;;;;;;;;;3.13;100.00;101524.00;5034375;28;19929;-74
2020/12/21 04:27:47;;;;;;;;;;;;;;;3.14;100.00;101523.94;5034013;28;19936;-73
2020/12/21 04:30:13;;;;;;;;;;;;;;;3.15;100.00;101517.63;5034192;28;19936;-74
2020/12/21 04:32:39;;;;;;;;;;;;;;;3.16;100.00;101526.56;5034269;28;19925;-73
2020/12/21 04:35:04;;;;;;;;;;;;;;;3.17;100.00;101528.31;5033805;28;19933;-74
2020/12/21 04:37:32;;;;;;;;;;;;;;;3.18;100.00;101527.38;5033859;28;20032;-74
2020/12/21 04:39:58;;;;;;;;;;;;;;;3.20;100.00;101525.50;5034001;28;20019;-74
2020/12/21 04:42:24;;;;;;;;;;;;;;;3.22;100.00;101530.81;5034199;28;19925;-74
2020/12/21 04:44:50;;;;;;;;;;;;;;;3.24;100.00;101534.31;5034231;28;20390;-74
2020/12/21 04:47:16;;;;;;;;;;;;;;;3.25;100.00;101525.34;5033549;28;20019;-74
2020/12/21 04:49:42;;;;;;;;;;;;;;;3.27;100.00;101520.78;5034106;28;20024;-74
2020/12/21 04:52:10;;;;;;;;;;;;;;;3.26;100.00;101525.28;5033851;28;19964;-73
2020/12/21 04:54:37;;;;;;;;;;;;;;;3.27;100.00;101527.00;5033655;28;20036;-74
2020/12/21 04:57:03;;;;;;;;;;;;;;;3.28;100.00;101527.91;5033450;28;20027;-74
2020/12/21 04:59:28;;;;;;;;;;;;;;;3.28;100.00;101527.91;5033811;28;19931;-74
2020/12/21 05:01:55;;;;;;;;;;;;;;;3.28;100.00;101530.59;5033538;28;19925;-74
2020/12/21 05:04:21;;;;;;;;;;;;;;;3.26;100.00;101522.59;5032527;28;19956;-74
2020/12/21 05:06:50;;;;;;;;;;;;;;;3.27;100.00;101526.16;5033355;28;20305;-75
2020/12/21 05:09:16;;;;;;;;;;;;;;;3.27;100.00;101512.72;5033538;28;19932;-75
2020/12/21 05:11:52;;;;;;;;;;;;;;;3.27;100.00;101515.41;5033531;28;19925;-74
2020/12/21 05:14:18;;;;;;;;;;;;;;;3.26;100.00;101509.19;5032216;28;20020;-74
2020/12/21 05:16:43;;;;;;;;;;;;;;;3.24;100.00;101505.66;5033867;28;19925;-74
2020/12/21 05:19:20;;;;;;;;;;;;;;;3.23;100.00;101501.22;5033150;28;19995;-73
2020/12/21 05:21:52;;;;;;;;;;;;;;;3.26;100.00;101513.66;5032261;28;20450;-73
2020/12/21 05:24:20;;;;;;;;;;;;;;;3.25;100.00;101509.25;5033296;28;20030;-74
2020/12/21 05:26:47;;;;;;;;;;;;;;;3.26;100.00;101513.66;5032790;28;20055;-73
2020/12/21 05:29:22;;;;;;;;;;;;;;;3.27;100.00;101518.09;5033144;28;19925;-73
2020/12/21 05:31:48;;;;;;;;;;;;;;;3.23;100.00;101508.41;5032536;28;20016;-73
2020/12/21 05:34:22;;;;;;;;;;;;;;;3.24;100.00;101515.53;5033065;28;19959;-73
2020/12/21 05:36:48;;;;;;;;;;;;;;;3.22;100.00;101512.03;5032759;28;20008;-73
2020/12/21 05:39:14;;;;;;;;;;;;;;;3.22;100.00;101510.22;5049331;28;20390;-73
2020/12/21 05:41:41;;;;;;;;;;;;;;;3.23;100.00;101511.09;5052491;28;19932;-72
2020/12/21 05:44:08;;;;;;;;;;;;;;;3.23;100.00;101516.47;5050239;28;19956;-73
2020/12/21 05:46:34;;;;;;;;;;;;;;;3.26;100.00;101529.75;5052578;28;19967;-73
2020/12/21 05:48:59;;;;;;;;;;;;;;;3.28;100.00;101512.66;5052326;28;19925;-72
2020/12/21 05:51:27;;;;;;;;;;;;;;;3.28;100.00;101526.06;5052425;28;19925;-73
2020/12/21 05:53:53;;;;;;;;;;;;;;;3.30;100.00;101520.66;5045626;28;20006;-73
2020/12/21 05:56:19;;;;;;;;;;;;;;;3.29;100.00;101524.28;5052381;28;20007;-73
2020/12/21 05:58:45;;;;;;;;;;;;;;;3.30;100.00;101515.28;5052686;28;20540;-73
2020/12/21 06:01:12;;;;;;;;;;;;;;;3.32;100.00;101524.16;5051922;28;19925;-73
2020/12/21 06:03:45;;;;;;;;;;;;;;;3.33;100.00;101524.09;5052064;28;20023;-74
2020/12/21 06:06:13;;;;;;;;;;;;;;;3.35;100.00;101524.03;5050020;28;19940;-74
2020/12/21 06:08:38;;;;;;;;;;;;;;;3.35;100.00;101524.94;5051808;28;20023;-74
2020/12/21 06:11:08;;;;;;;;;;;;;;;3.35;100.00;101524.03;5050830;28;19925;-73
2020/12/21 06:13:36;;;;;;;;;;;;;;;3.39;100.00;101522.97;5052394;28;20048;-73
2020/12/21 06:16:02;;;;;;;;;;;;;;;3.40;100.00;101519.38;5051541;28;20402;-73
2020/12/21 06:18:29;;;;;;;;;;;;;;;3.42;100.00;101527.34;5051756;28;19936;-73
2020/12/21 06:20:55;;;;;;;;;;;;;;;3.42;100.00;101528.25;5051422;28;20464;-74
2020/12/21 06:23:28;;;;;;;;;;;;;;;3.43;100.00;101524.59;5051293;28;19948;-74
2020/12/21 06:25:54;;;;;;;;;;;;;;;3.43;100.00;101527.28;5049603;28;19968;-73
2020/12/21 06:28:27;;;;;;;;;;;;;;;3.42;100.00;101533.63;5051416;28;19964;-74
2020/12/21 06:30:53;;;;;;;;;;;;;;;3.41;100.00;101533.66;5051926;28;19998;-73
2020/12/21 06:33:19;;;;;;;;;;;;;;;3.39;100.00;101532.84;5051602;28;19925;-74
2020/12/21 06:35:45;;;;;;;;;;;;;;;3.39;100.00;101535.53;5051759;28;19936;-74
2020/12/21 06:38:11;;;;;;;;;;;;;;;3.35;100.00;101530.31;5040830;28;20012;-74
2020/12/21 06:40:37;;;;;;;;;;;;;;;3.34;100.00;101533.00;5030959;28;20016;-75
2020/12/21 06:43:10;;;;;;;;;;;;;;;3.33;100.00;101539.34;5026621;28;19986;-76
2020/12/21 06:45:35;;;;;;;;;;;;;;;3.31;100.00;101549.25;5043300;28;19929;-75
2020/12/21 06:48:01;;;;;;;;;;;;;;;3.31;100.00;101544.78;5050387;28;20410;-75
2020/12/21 06:50:27;;;;;;;;;;;;;;;3.30;100.00;101550.16;5038156;28;20020;-75
2020/12/21 06:52:54;;;;;;;;;;;;;;;3.29;100.00;101551.13;5031510;28;19933;-75
2020/12/21 06:55:19;;;;;;;;;;;;;;;3.30;100.00;101552.84;5042508;28;20069;-74
2020/12/21 06:57:50;;;;;;;;;;;;;;;3.27;100.00;101547.59;5051213;28;19929;-74
2020/12/21 07:00:19;;;;;;;;;;;;;;;3.25;100.00;101544.13;5050666;28;20020;-74
2020/12/21 07:02:46;;;;;;;;;;;;;;;3.22;100.00;101555.84;5051255;28;20023;-75
2020/12/21 07:05:12;;;;;;;;;;;;;;;3.19;100.00;101550.56;5049897;28;20040;-75
2020/12/21 07:07:38;;;;;;;;;;;;;;;3.16;100.00;101551.56;5046599;28;19928;-74
2020/12/21 07:10:11;;;;;;;;;;;;;;;3.14;100.00;101561.50;5050564;28;19933;-73
2020/12/21 07:12:37;;;;;;;;;;;;;;;3.13;100.00;101557.06;5051246;28;20410;-73
2020/12/21 07:15:04;;;;;;;;;;;;;;;3.14;100.00;101568.66;5050390;28;19967;-74
2020/12/21 07:17:31;;;;;;;;;;;;;;;3.13;100.00;101567.78;5047144;28;19956;-73
2020/12/21 07:19:58;;;;;;;;;;;;;;;3.14;100.00;101563.28;5030243;28;20019;-74
2020/12/21 07:22:25;;;;;;;;;;;;;;;3.15;100.00;101565.94;5031211;28;19929;-73
2020/12/21 07:24:50;;;;;;;;;;;;;;;3.14;100.00;101569.53;5042010;28;20019;-74
2020/12/21 07:27:17;;;;;;;;;;;;;;;3.15;100.00;101571.31;5036601;28;19928;-73
2020/12/21 07:29:43;;;;;;;;;;;;;;;3.15;100.00;101573.97;5041296;28;19991;-73
2020/12/21 07:32:09;;;;;;;;;;;;;;;3.16;100.00;101577.53;5050386;28;19924;-73
2020/12/21 07:34:35;;;;;;;;;;;;;;;3.19;100.00;101580.09;5037820;28;20450;-73
2020/12/21 07:37:06;;;;;;;;;;;;;;;3.22;100.00;101592.53;5039174;28;20052;-73
2020/12/21 07:39:32;;;;;;;;;;;;;;;3.25;100.00;101587.06;5051058;28;20357;-73
2020/12/21 07:42:03;;;;;;;;;;;;;;;3.27;100.00;101586.03;5047496;28;19929;-73
2020/12/21 07:44:32;;;;;;;;;;;;;;;3.32;100.00;101584.06;5050039;28;19925;-73
2020/12/21 07:47:00;;;;;;;;;;;;;;;3.33;100.00;101584.97;5039900;28;20465;-73
2020/12/21 07:49:26;;;;;;;;;;;;;;;3.32;100.00;101597.50;5043746;28;20361;-74
2020/12/21 07:51:57;;;;;;;;;;;;;;;3.34;100.00;101597.44;5035150;28;19925;-73
2020/12/21 07:54:23;;;;;;;;;;;;;;;3.33;100.00;101590.34;5053075;28;19928;-73
2020/12/21 07:56:58;;;;;;;;;;;;;;;3.33;100.00;101595.69;5053985;28;19931;-74
2020/12/21 07:59:24;;;;;;;;;;;;;;;3.30;100.00;101595.78;5054803;28;19979;-74
2020/12/21 08:01:56;;;;;;;;;;;;;;;3.28;100.00;101593.16;5054114;28;20283;-74
2020/12/21 08:04:22;;;;;;;;;;;;;;;3.25;100.00;101592.44;5036710;28;19928;-74
2020/12/21 08:06:48;;;;;;;;;;;;;;;3.22;100.00;101595.22;5053876;28;19936;-74
2020/12/21 08:09:14;;;;;;;;;;;;;;;3.18;100.00;101592.66;5056431;28;19936;-74
2020/12/21 08:11:40;;;;;;;;;;;;;;;3.14;100.00;101591.00;5052791;28;19932;-74
2020/12/21 08:14:07;;;;;;;;;;;;;;;3.12;100.00;101595.53;5042820;28;19971;-74
2020/12/21 08:16:33;;;;;;;;;;;;;;;3.11;100.00;101596.47;5037052;28;20044;-73
2020/12/21 08:19:00;;;;;;;;;;;;;;;3.13;100.00;101599.97;5043576;28;19925;-73
2020/12/21 08:21:27;;;;;;;;;;;;;;;3.14;100.00;101603.53;5053994;28;19929;-73
2020/12/21 08:23:53;;;;;;;;;;;;;;;3.15;100.00;101598.13;5054088;28;20012;-74
2020/12/21 08:26:20;;;;;;;;;;;;;;;3.20;100.00;101610.50;5053506;28;19967;-74
2020/12/21 08:28:46;;;;;;;;;;;;;;;3.30;100.00;101601.16;5053912;28;19924;-74
2020/12/21 08:31:13;;;;;;;;;;;;;;;3.37;100.00;101600.03;5053670;28;19928;-74
2020/12/21 08:33:43;;;;;;;;;;;;;;;3.42;100.00;101599.84;5054250;28;19925;-74
2020/12/21 08:36:17;;;;;;;;;;;;;;;3.49;100.00;101596.88;5053249;28;20445;-74
2020/12/21 08:38:43;;;;;;;;;;;;;;;3.76;100.00;101599.44;5053049;28;19932;-74
2020/12/21 08:41:09;;;;;;;;;;;;;;;4.09;100.00;101599.03;5053467;28;19925;-74
2020/12/21 08:43:35;;;;;;;;;;;;;;;4.43;100.00;101600.34;5053321;28;20432;-74
2020/12/21 08:46:04;;;;;;;;;;;;;;;4.68;100.00;101591.25;5052982;28;19932;-73
2020/12/21 08:48:30;;;;;;;;;;;;;;;4.98;100.00;101594.44;5053280;28;20054;-73
2020/12/21 08:50:56;;;;;;;;;;;;;;;5.06;100.00;101587.81;5041857;28;19925;-73
2020/12/21 08:53:22;;;;;;;;;;;;;;;4.98;100.00;101586.38;5037882;28;19925;-74
2020/12/21 08:55:48;;;;;;;;;;;;;;;5.05;100.00;101581.59;5049471;28;20063;-74
2020/12/21 08:58:14;;;;;;;;;;;;;;;4.90;100.00;101576.88;5042716;28;19928;-73
2020/12/21 09:00:40;;;;;;;;;;;;;;;4.74;100.00;101580.22;5045463;28;19940;-74
2020/12/21 09:03:05;;;;;;;;;;;;;;;4.68;100.00;101584.03;5053195;28;20382;-73
2020/12/21 09:05:31;;;;;;;;;;;;;;;4.67;100.00;101586.81;5049316;28;19925;-74
2020/12/21 09:07:57;;;;;;;;;;;;;;;4.75;100.00;101587.34;5053105;28;19932;-73
2020/12/21 09:10:23;;;;;;;;;;;;;;;4.79;100.00;101588.09;5051618;28;19940;-73
2020/12/21 09:12:49;;;;;;;;;;;;;;;4.67;100.00;101593.06;5053203;28;20023;-73
2020/12/21 09:15:15;;;;;;;;;;;;;;;5.12;100.00;101598.34;5053025;28;19982;-73
2020/12/21 09:17:41;;;;;;;;;;;;;;;5.24;100.00;101594.19;5034121;28;19932;-73
2020/12/21 09:20:06;;;;;;;;;;;;;;;5.39;100.00;101595.34;5033030;28;19940;-73
2020/12/21 09:22:32;;;;;;;;;;;;;;;5.21;100.00;101592.50;5046700;28;19929;-73
2020/12/21 09:24:58;;;;;;;;;;;;;;;5.04;100.00;101587.91;5052754;28;20077;-73
2020/12/21 09:27:25;;;;;;;;;;;;;;;5.02;100.00;101595.16;5052721;28;19925;-74
2020/12/21 09:29:50;;;;;;;;;;;;;;;4.87;100.00;101596.72;5052417;28;20455;-73
2020/12/21 09:32:16;;;;;;;;;;;;;;;4.80;100.00;101593.41;5053159;28;19929;-72
2020/12/21 09:34:42;;;;;;;;;;;;;;;4.78;100.00;101592.59;5052426;28;20507;-73
2020/12/21 09:37:08;;;;;;;;;;;;;;;4.76;100.00;101591.78;5051875;28;19935;-72
2020/12/21 09:39:33;;;;;;;;;;;;;;;4.65;100.00;101585.97;5040148;28;19925;-73
2020/12/21 09:41:59;;;;;;;;;;;;;;;4.81;100.00;101599.66;5051849;28;20299;-73
2020/12/21 09:44:26;;;;;;;;;;;;;;;5.01;100.00;101590.72;5052636;28;19951;-73
2020/12/21 09:46:51;;;;;;;;;;;;;;;5.38;100.00;101589.06;5051539;28;20005;-73
2020/12/21 09:49:17;;;;;;;;;;;;;;;5.65;100.00;101586.94;5052091;28;20401;-74
2020/12/21 09:51:43;;;;;;;;;;;;;;;5.77;100.00;101584.59;5052119;28;19932;-73
2020/12/21 09:54:09;;;;;;;;;;;;;;;5.93;100.00;101573.94;5051840;28;19982;-74
2020/12/21 09:56:35;;;;;;;;;;;;;;;6.09;100.00;101574.13;5051713;28;19932;-74
2020/12/21 09:59:00;;;;;;;;;;;;;;;5.80;100.00;101569.16;5052500;28;19925;-74
2020/12/21 10:01:28;;;;;;;;;;;;;;;5.78;100.00;101570.19;5052061;28;19925;-72
2020/12/21 10:03:54;;;;;;;;;;;;;;;5.75;100.00;101565.81;5051968;28;19924;-72
2020/12/21 10:06:19;;;;;;;;;;;;;;;5.98;100.00;101561.16;5041787;28;19932;-72
2020/12/21 10:08:45;;;;;;;;;;;;;;;5.92;100.00;101556.03;5052293;28;19932;-73
2020/12/21 10:11:11;;;;;;;;;;;;;;;5.78;100.00;101560.25;5051704;28;19928;-72
2020/12/21 10:13:37;;;;;;;;;;;;;;;5.86;100.00;101558.06;5051932;28;19925;-73
2020/12/21 10:16:02;;;;;;;;;;;;;;;5.90;100.00;101548.03;5051899;28;20306;-73
2020/12/21 10:18:29;;;;;;;;;;;;;;;6.06;100.00;101542.78;5050792;28;19959;-74
2020/12/21 10:20:55;;;;;;;;;;;;;;;6.10;100.00;101547.06;5051305;28;20495;-75
2020/12/21 10:23:21;;;;;;;;;;;;;;;6.00;100.00;101546.66;5049529;28;19932;-74
2020/12/21 10:25:47;;;;;;;;;;;;;;;5.75;100.00;101554.16;5034661;28;19925;-72
2020/12/21 10:28:13;;;;;;;;;;;;;;;5.52;100.00;101542.66;5046558;28;19932;-73
2020/12/21 10:30:38;;;;;;;;;;;;;;;5.42;100.00;101546.72;5051195;28;19929;-72
2020/12/21 10:33:04;;;;;;;;;;;;;;;5.55;100.00;101541.66;5051249;28;19932;-72
2020/12/21 10:35:31;;;;;;;;;;;;;;;5.72;100.00;101547.09;5051512;28;19925;-72
2020/12/21 10:37:57;;;;;;;;;;;;;;;5.75;100.00;101533.47;5051462;28;19925;-73
2020/12/21 10:40:22;;;;;;;;;;;;;;;5.48;100.00;101527.59;5051397;28;19925;-72
2020/12/21 10:42:48;;;;;;;;;;;;;;;5.54;100.00;101535.38;5051162;28;19937;-73
2020/12/21 10:45:14;;;;;;;;;;;;;;;5.50;100.00;101534.63;5050630;28;19932;-71
2020/12/21 10:47:40;;;;;;;;;;;;;;;5.50;100.00;101529.25;5050293;28;20423;-73
2020/12/21 10:50:06;;;;;;;;;;;;;;;5.62;100.00;101535.00;5049911;28;19956;-72
2020/12/21 10:52:33;;;;;;;;;;;;;;;5.80;100.00;101536.81;5049838;28;20378;-72
2020/12/21 10:54:58;;;;;;;;;;;;;;;5.75;100.00;101525.41;5051362;28;20024;-72
2020/12/21 10:57:24;;;;;;;;;;;;;;;5.78;100.00;101522.53;5050305;28;19925;-72
2020/12/21 10:59:50;;;;;;;;;;;;;;;5.83;100.00;101527.72;5051148;28;19931;-72
2020/12/21 11:02:16;;;;;;;;;;;;;;;5.87;100.00;101529.31;5050888;28;19935;-72
2020/12/21 11:04:41;;;;;;;;;;;;;;;5.82;100.00;101525.97;5050585;28;19929;-72
2020/12/21 11:07:07;;;;;;;;;;;;;;;5.96;100.00;101519.88;5050195;28;19935;-72
2020/12/21 11:09:34;;;;;;;;;;;;;;;6.06;100.00;101521.22;5051099;28;19925;-72
2020/12/21 11:11:59;;;;;;;;;;;;;;;6.07;100.00;101511.34;5031351;28;20039;-72
2020/12/21 11:14:25;;;;;;;;;;;;;;;5.99;100.00;101500.94;5031256;28;19929;-73
2020/12/21 11:16:52;;;;;;;;;;;;;;;5.96;100.00;101498.31;5048809;28;20286;-73
2020/12/21 11:19:18;;;;;;;;;;;;;;;5.97;100.00;101503.66;5050836;28;19931;-73
2020/12/21 11:21:43;;;;;;;;;;;;;;;5.91;100.00;101503.09;5050678;28;19964;-73
2020/12/21 11:24:09;;;;;;;;;;;;;;;5.98;100.00;101497.34;5046882;28;19991;-72
2020/12/21 11:26:36;;;;;;;;;;;;;;;5.94;100.00;101503.81;5035670;28;19934;-74
2020/12/21 11:29:04;;;;;;;;;;;;;;;5.94;100.00;101497.56;5030333;28;20020;-73
2020/12/21 11:31:31;;;;;;;;;;;;;;;5.82;100.00;101497.19;5045063;28;19925;-73
2020/12/21 11:33:57;;;;;;;;;;;;;;;5.82;100.00;101491.78;5049631;28;20286;-73
2020/12/21 11:36:22;;;;;;;;;;;;;;;6.08;100.00;101483.41;5049963;28;19924;-73
2020/12/21 11:38:48;;;;;;;;;;;;;;;6.25;100.00;101482.56;5050791;28;19933;-72
2020/12/21 11:41:14;;;;;;;;;;;;;;;6.27;100.00;101480.66;5047432;28;19929;-73
2020/12/21 11:43:41;;;;;;;;;;;;;;;6.25;100.00;101485.25;5050548;28;20309;-73
2020/12/21 11:46:06;;;;;;;;;;;;;;;6.45;100.00;101485.09;5049589;28;19971;-73
2020/12/21 11:48:32;;;;;;;;;;;;;;;6.52;100.00;101478.44;5050443;28;19925;-72
2020/12/21 11:50:58;;;;;;;;;;;;;;;6.76;100.00;101477.22;5036769;28;19929;-72
2020/12/21 11:53:24;;;;;;;;;;;;;;;6.49;100.00;101475.03;5030897;28;20326;-73
2020/12/21 11:55:49;;;;;;;;;;;;;;;6.72;100.00;101473.84;5050423;28;19924;-73
2020/12/21 11:58:15;;;;;;;;;;;;;;;6.81;100.00;101475.16;5050168;28;20412;-73
2020/12/21 12:00:42;;;;;;;;;;;;;;;6.99;100.00;101467.91;5050139;28;19934;-74
2020/12/21 12:03:07;;;;;;;;;;;;;;;6.87;100.00;101464.91;5047651;28;20354;-73
2020/12/21 12:05:33;;;;;;;;;;;;;;;6.78;100.00;101457.28;5050391;28;19955;-74
2020/12/21 12:07:59;;;;;;;;;;;;;;;6.63;100.00;101468.91;5049667;28;19956;-74
2020/12/21 12:10:25;;;;;;;;;;;;;;;6.53;100.00;101468.50;5050284;28;20294;-73
2020/12/21 12:12:51;;;;;;;;;;;;;;;6.41;100.00;101470.03;5050357;28;19925;-73
2020/12/21 12:15:16;;;;;;;;;;;;;;;6.20;100.00;101464.78;5050074;28;20405;-74
2020/12/21 12:17:43;;;;;;;;;;;;;;;6.22;100.00;101467.41;5049702;28;19925;-73
2020/12/21 12:20:10;;;;;;;;;;;;;;;6.08;100.00;101467.22;5049568;28;20051;-73
2020/12/21 12:22:36;;;;;;;;;;;;;;;6.04;100.00;101463.84;5049921;28;20405;-73
2020/12/21 12:25:02;;;;;;;;;;;;;;;6.23;100.00;101466.47;5048369;28;19925;-73
2020/12/21 12:27:28;;;;;;;;;;;;;;;6.42;100.00;101466.38;5049884;28;19929;-73
2020/12/21 12:29:54;;;;;;;;;;;;;;;6.39;100.00;101463.84;5049900;28;19932;-73
2020/12/21 12:32:20;;;;;;;;;;;;;;;6.54;100.00;101462.16;5050347;28;20329;-73